Time;durP1;ratioP1;P1;durP2;ratioP2;P2;SDS_P1;SDS_P2;PMS_P1;PMS_P2;Temp;Humidity;BMP_temperature;BMP_pressure;BME280_temperature;BME280_humidity;BME280_pressure;Samples;Min_cycle;Max_cycle;Signal;HPM_P1;HPM_P2
2023/03/20 00:00:48;;;;;;;21.83;8.40;;;;;;;7.95;100.00;101955.91;4941297;28;20031;-92
2023/03/20 00:03:14;;;;;;;18.45;7.75;;;;;;;8.07;100.00;101973.16;4937049;28;20062;-92
2023/03/20 00:05:43;;;;;;;19.83;7.95;;;;;;;8.03;100.00;101974.88;4940213;28;20067;-91
2023/03/20 00:08:08;;;;;;;17.15;6.78;;;;;;;7.98;100.00;101957.66;4945631;28;20031;-92
2023/03/20 00:10:45;;;;;;;21.00;7.10;;;;;;;8.06;100.00;101968.84;4939758;28;20028;-91
2023/03/20 00:13:21;;;;;;;17.27;7.32;;;;;;;7.96;100.00;101959.34;4937429;28;20527;-92
2023/03/20 00:15:47;;;;;;;18.25;6.80;;;;;;;8.04;100.00;101973.16;4956211;28;20042;-92
2023/03/20 00:18:17;;;;;;;15.63;6.57;;;;;;;8.01;100.00;101966.25;4940101;28;20035;-92
2023/03/20 00:20:52;;;;;;;17.60;6.53;;;;;;;8.00;100.00;101963.66;4939023;28;20035;-91
2023/03/20 00:23:36;;;;;;;19.63;6.78;;;;;;;8.01;100.00;101971.41;4943110;28;20376;-91
2023/03/20 00:26:31;;;;;;;19.25;6.63;;;;;;;7.98;100.00;101961.09;4955353;28;20027;-92
2023/03/20 00:29:03;;;;;;;;;;;;;;;8.12;100.00;101974.06;4940842;28;20115;-91
2023/03/20 00:31:51;;;;;;;19.50;6.38;;;;;;;7.93;100.00;101942.97;4954789;28;19961;-91
2023/03/20 00:34:42;;;;;;;;;;;;;;;;;;;;;
2023/03/20 00:37:38;;;;;;;20.98;6.55;;;;;;;8.03;100.00;101953.34;4932391;28;20090;-90
2023/03/20 00:40:33;;;;;;;15.32;6.30;;;;;;;7.97;100.00;101940.44;4937683;28;20183;-91
2023/03/20 00:43:41;;;;;;;18.42;6.55;;;;;;;8.07;100.00;101949.91;4938884;28;20027;-92
2023/03/20 00:46:24;;;;;;;21.08;6.82;;;;;;;8.01;100.00;101927.53;4882260;29;20040;-92
2023/03/20 00:48:55;;;;;;;19.55;6.40;;;;;;;7.94;100.00;101921.47;4882748;29;20702;-91
2023/03/20 00:51:32;;;;;;;21.98;6.72;;;;;;;7.85;100.00;101903.34;4897858;29;20032;-91
2023/03/20 00:54:18;;;;;;;22.90;6.82;;;;;;;7.88;100.00;101903.38;4881660;29;20800;-92
2023/03/20 00:59:55;;;;;;;14.95;6.63;;;;;;;8.00;100.00;101943.88;4879156;29;20066;-91
2023/03/20 01:02:25;;;;;;;18.02;6.50;;;;;;;7.81;100.00;101911.94;4914644;28;20169;-92
2023/03/20 01:04:53;;;;;;;14.73;6.18;;;;;;;7.85;100.00;101939.50;4940495;28;20035;-92
2023/03/20 01:07:19;;;;;;;18.58;7.30;;;;;;;7.87;100.00;101950.69;4939749;28;20686;-92
2023/03/20 01:09:46;;;;;;;15.85;6.30;;;;;;;7.86;100.00;101964.47;4938998;28;20036;-91
2023/03/20 01:12:13;;;;;;;18.83;6.80;;;;;;;7.85;100.00;101965.31;4940270;28;20039;-92
2023/03/20 01:14:38;;;;;;;17.52;6.07;;;;;;;7.82;100.00;101977.34;4938787;28;20035;-92
2023/03/20 01:17:04;;;;;;;17.60;7.03;;;;;;;7.79;100.00;101970.44;4956248;28;20024;-92
2023/03/20 01:19:32;;;;;;;19.00;6.88;;;;;;;7.89;100.00;101985.13;4939253;28;20400;-91
2023/03/20 01:21:58;;;;;;;19.92;6.95;;;;;;;7.69;100.00;101950.59;4953628;28;20086;-91
2023/03/20 01:24:23;;;;;;;17.08;6.50;;;;;;;7.71;100.00;101961.78;4938975;28;20031;-91
2023/03/20 01:26:50;;;;;;;19.23;7.18;;;;;;;7.52;100.00;101945.31;4938560;28;20031;-93
2023/03/20 01:29:32;;;;;;;16.92;6.63;;;;;;;7.54;100.00;101968.56;4938948;28;20040;-91
2023/03/20 01:31:57;;;;;;;17.33;6.63;;;;;;;7.37;100.00;101960.69;4942721;28;20027;-92
2023/03/20 01:34:22;;;;;;;15.73;6.75;;;;;;;7.28;100.00;101960.66;4941954;28;20047;-92
2023/03/20 01:36:51;;;;;;;18.98;6.93;;;;;;;7.14;100.00;101950.22;4941774;28;20027;-92
2023/03/20 01:39:20;;;;;;;21.25;7.80;;;;;;;7.28;100.00;101994.16;4956648;28;20050;-91
2023/03/20 01:41:47;;;;;;;17.73;7.00;;;;;;;7.19;100.00;101986.34;4957987;28;20062;-92
2023/03/20 01:44:22;;;;;;;19.52;7.63;;;;;;;6.99;100.00;101965.56;4945009;28;20035;-92
2023/03/20 01:46:52;;;;;;;18.73;7.78;;;;;;;7.04;100.00;101979.34;4942073;28;20051;-92
2023/03/20 01:49:20;;;;;;;20.02;7.05;;;;;;;6.98;100.00;101983.56;4962187;28;20115;-93
2023/03/20 01:51:47;;;;;;;22.10;7.97;;;;;;;6.79;100.00;101968.78;4946978;28;20114;-91
2023/03/20 01:54:15;;;;;;;20.88;8.90;;;;;;;6.83;100.00;101981.72;4943661;28;20118;-92
2023/03/20 01:57:07;;;;;;;22.23;8.48;;;;;;;6.63;100.00;101945.44;4945022;28;20582;-92
2023/03/20 01:59:36;;;;;;;22.42;8.20;;;;;;;6.59;100.00;101950.56;4952079;28;20046;-93
2023/03/20 02:02:06;;;;;;;22.15;8.30;;;;;;;6.59;100.00;101973.75;4938536;28;20047;-92
2023/03/20 02:04:42;;;;;;;21.33;8.68;;;;;;;6.50;100.00;101953.91;4952445;28;20027;-92
2023/03/20 02:07:09;;;;;;;22.63;9.38;;;;;;;6.42;100.00;101947.78;4939775;28;20039;-92
2023/03/20 02:09:35;;;;;;;23.50;9.15;;;;;;;6.46;100.00;101961.59;4954071;28;20028;-92
2023/03/20 02:12:04;;;;;;;20.45;8.48;;;;;;;6.32;100.00;101938.25;4939942;28;20078;-91
2023/03/20 02:14:31;;;;;;;24.60;9.32;;;;;;;6.34;100.00;101949.44;4941421;28;20035;-92
2023/03/20 02:16:57;;;;;;;23.05;9.00;;;;;;;6.35;100.00;101954.59;4957491;28;20940;-92
2023/03/20 02:19:34;;;;;;;24.80;9.27;;;;;;;6.32;100.00;101972.59;4958265;28;20518;-92
2023/03/20 02:22:06;;;;;;;23.33;8.60;;;;;;;6.25;100.00;101982.78;4957778;28;20380;-94
2023/03/20 02:24:55;;;;;;;24.17;9.38;;;;;;;6.18;100.00;101988.72;4958089;28;20550;-92
2023/03/20 02:27:58;;;;;;;24.10;9.15;;;;;;;6.12;100.00;101989.50;4957087;28;20051;-93
2023/03/20 02:30:46;;;;;;;22.95;9.23;;;;;;;6.08;100.00;101989.41;4956760;28;20106;-92
2023/03/20 02:33:36;;;;;;;23.75;8.40;;;;;;;5.93;100.00;101979.81;4957622;28;20039;-91
2023/03/20 02:36:34;;;;;;;24.48;9.32;;;;;;;5.91;100.00;101969.50;4942854;28;20121;-92
2023/03/20 02:39:05;;;;;;;23.98;9.43;;;;;;;6.01;100.00;101992.75;4943100;28;20042;-92
2023/03/20 02:41:44;;;;;;;24.70;8.48;;;;;;;6.03;100.00;101991.94;4955703;28;20043;-92
2023/03/20 02:44:22;;;;;;;24.30;8.60;;;;;;;6.04;100.00;101985.97;4957656;28;20027;-91
2023/03/20 02:47:12;;;;;;;25.60;9.45;;;;;;;6.06;100.00;101979.13;4946336;28;20027;-93
2023/03/20 02:50:04;;;;;;;28.05;10.00;;;;;;;6.08;100.00;101977.41;4941570;28;20020;-92
2023/03/20 02:52:52;;;;;;;29.00;10.00;;;;;;;6.11;100.00;101966.31;4941087;28;20047;-92
2023/03/20 02:55:35;;;;;;;27.25;9.75;;;;;;;6.02;100.00;101943.00;4957812;28;20023;-92
2023/03/20 02:58:09;;;;;;;27.95;10.10;;;;;;;6.13;100.00;101970.66;4956462;28;20170;-93
2023/03/20 03:00:47;;;;;;;27.30;10.60;;;;;;;5.94;100.00;101930.91;4943636;28;20113;-93
2023/03/20 03:03:26;;;;;;;27.90;10.50;;;;;;;6.06;100.00;101948.25;4943145;28;20459;-92
2023/03/20 03:06:05;;;;;;;28.42;10.95;;;;;;;6.02;100.00;101946.47;4941149;28;20030;-93
2023/03/20 03:08:40;;;;;;;32.90;10.88;;;;;;;6.02;100.00;101948.16;4940760;28;20031;-93
2023/03/20 03:11:10;;;;;;;;;;;;;;;6.08;100.00;101953.38;4941577;28;20035;-93
2023/03/20 03:13:41;;;;;;;25.15;10.13;;;;;;;5.85;100.00;101922.19;4955695;28;19922;-92
2023/03/20 03:16:15;;;;;;;26.02;9.50;;;;;;;5.80;100.00;101919.53;4942174;28;20468;-92
2023/03/20 03:18:43;;;;;;;29.73;10.40;;;;;;;5.83;100.00;101919.59;4942579;28;20143;-92
2023/03/20 03:21:12;;;;;;;25.83;10.43;;;;;;;5.79;100.00;101912.69;4941786;28;20023;-93
2023/03/20 03:23:48;;;;;;;28.17;10.40;;;;;;;5.88;100.00;101917.09;4946310;29;20081;-93
2023/03/20 03:26:24;;;;;;;30.05;11.20;;;;;;;5.79;100.00;101897.25;4946861;28;20066;-94
2023/03/20 03:28:56;;;;;;;28.85;10.45;;;;;;;5.80;100.00;101893.00;4943810;28;20071;-93
2023/03/20 03:31:28;;;;;;;28.75;10.88;;;;;;;6.00;100.00;101926.72;4943995;28;21179;-93
2023/03/20 03:33:59;;;;;;;29.90;10.88;;;;;;;5.83;100.00;101885.28;4947736;28;20409;-94
2023/03/20 03:37:07;;;;;;;27.58;10.85;;;;;;;5.82;100.00;101888.69;4957723;28;20648;-93
2023/03/20 03:39:53;;;;;;;26.08;9.90;;;;;;;5.89;100.00;101916.28;4941094;28;20058;-93
2023/03/20 03:42:37;;;;;;;24.55;9.80;;;;;;;5.74;100.00;101895.44;4947514;28;20564;-94
2023/03/20 03:45:21;;;;;;;30.10;10.40;;;;;;;5.75;100.00;101902.31;4941979;28;20035;-93
2023/03/20 03:47:59;;;;;;;22.50;10.00;;;;;;;5.75;100.00;101900.63;4959492;28;20054;-95
2023/03/20 03:50:36;;;;;;;29.35;9.82;;;;;;;5.80;100.00;101913.56;4944232;28;20059;-93
2023/03/20 03:53:13;;;;;;;25.85;9.68;;;;;;;5.73;100.00;101902.31;4945783;28;20063;-93
2023/03/20 03:55:44;;;;;;;26.08;9.73;;;;;;;5.85;100.00;101920.50;4943798;28;20110;-94
2023/03/20 03:58:20;;;;;;;28.75;9.35;;;;;;;5.74;100.00;101896.31;4941633;28;20455;-93
2023/03/20 04:00:49;;;;;;;29.60;10.52;;;;;;;5.71;100.00;101896.28;4957515;28;20042;-94
2023/03/20 04:03:19;;;;;;;26.38;9.90;;;;;;;5.76;100.00;101893.78;4944603;28;20445;-93
2023/03/20 04:05:45;;;;;;;28.08;10.07;;;;;;;5.79;100.00;101902.41;4960048;28;20035;-93
2023/03/20 04:08:13;;;;;;;25.65;10.35;;;;;;;5.82;100.00;101917.88;4943553;28;20031;-93
2023/03/20 04:10:39;;;;;;;28.58;10.32;;;;;;;5.70;100.00;101894.56;4958019;28;20475;-93
2023/03/20 04:13:04;;;;;;;27.75;10.48;;;;;;;5.69;100.00;101891.97;4940216;28;20503;-94
2023/03/20 04:15:30;;;;;;;28.42;9.55;;;;;;;5.68;100.00;101891.09;4942164;28;21362;-93
2023/03/20 04:17:55;;;;;;;26.08;9.52;;;;;;;5.76;100.00;101906.63;4941728;28;20250;-93
2023/03/20 04:20:21;;;;;;;26.27;10.15;;;;;;;5.64;100.00;101891.06;4956895;28;20074;-94
2023/03/20 04:22:50;;;;;;;25.80;9.13;;;;;;;5.55;100.00;101871.22;4941786;28;20048;-93
2023/03/20 04:25:23;;;;;;;25.65;9.73;;;;;;;5.67;100.00;101901.34;4956911;28;20094;-93
2023/03/20 04:27:54;;;;;;;26.58;9.43;;;;;;;5.53;100.00;101888.31;4941311;28;20033;-93
2023/03/20 04:30:20;;;;;;;26.48;9.15;;;;;;;5.47;100.00;101877.94;4957246;28;20085;-93
2023/03/20 04:32:45;;;;;;;24.90;8.90;;;;;;;5.44;100.00;101886.50;4938551;28;20421;-93
2023/03/20 04:35:13;;;;;;;26.42;8.68;;;;;;;5.42;100.00;101885.59;4955268;28;20495;-92
2023/03/20 04:37:42;;;;;;;24.75;10.60;;;;;;;5.34;100.00;101876.06;4943268;28;20042;-93
2023/03/20 04:40:08;;;;;;;23.83;9.38;;;;;;;5.38;100.00;101875.28;4946433;28;20027;-92
2023/03/20 04:42:36;;;;;;;26.45;9.27;;;;;;;5.36;100.00;101880.38;4957293;28;20023;-91
2023/03/20 04:45:07;;;;;;;23.40;9.02;;;;;;;5.35;100.00;101867.50;4941033;28;20377;-94
2023/03/20 04:47:36;;;;;;;25.90;9.00;;;;;;;5.28;100.00;101850.25;4939157;28;20027;-93
2023/03/20 04:50:05;;;;;;;23.73;9.05;;;;;;;5.29;100.00;101845.16;4944525;28;20158;-92
2023/03/20 04:52:30;;;;;;;27.98;10.27;;;;;;;5.45;100.00;101864.22;4955608;28;20031;-92
2023/03/20 04:54:59;;;;;;;27.60;10.40;;;;;;;5.45;100.00;101859.94;4937778;28;20054;-93
2023/03/20 04:57:31;;;;;;;26.35;10.70;;;;;;;5.42;100.00;101851.31;4955420;28;20061;-93
2023/03/20 04:59:57;;;;;;;22.70;9.93;;;;;;;5.49;100.00;101859.13;4937836;28;20023;-93
2023/03/20 05:02:22;;;;;;;24.45;10.27;;;;;;;5.51;100.00;101862.59;4940192;28;20038;-92
2023/03/20 05:04:48;;;;;;;26.00;9.85;;;;;;;5.52;100.00;101866.03;4940498;28;20100;-92
2023/03/20 05:07:13;;;;;;;22.73;9.43;;;;;;;5.48;100.00;101861.69;4940083;28;20042;-92
2023/03/20 05:09:44;;;;;;;27.98;10.48;;;;;;;5.52;100.00;101872.06;4942750;28;20964;-94
2023/03/20 05:12:10;;;;;;;28.00;10.07;;;;;;;5.54;100.00;101875.47;4939153;28;20388;-93
2023/03/20 05:14:35;;;;;;;23.60;9.35;;;;;;;5.48;100.00;101854.84;4944137;29;20479;-94
2023/03/20 05:17:04;;;;;;;30.98;10.85;;;;;;;5.67;100.00;101875.63;4943829;28;20186;-93
2023/03/20 05:19:32;;;;;;;23.67;9.60;;;;;;;5.53;100.00;101844.59;4940476;28;20078;-94
2023/03/20 05:22:10;;;;;;;23.98;10.48;;;;;;;5.60;100.00;101859.25;4943228;28;20023;-94
2023/03/20 05:24:36;;;;;;;24.20;9.65;;;;;;;5.59;100.00;101848.97;4939876;28;20024;-93
2023/03/20 05:27:30;;;;;;;23.30;9.73;;;;;;;5.60;100.00;101842.97;4953937;28;20035;-93
2023/03/20 05:29:59;;;;;;;22.98;9.38;;;;;;;5.69;100.00;101858.53;4945136;29;20039;-94
2023/03/20 05:32:37;;;;;;;;;;;;;;;;;;;;;
2023/03/20 05:35:04;;;;;;;21.30;9.48;;;;;;;5.62;100.00;101841.28;4943153;28;20526;-93
2023/03/20 05:37:31;;;;;;;23.42;9.70;;;;;;;5.82;100.00;101875.84;4939658;28;20504;-92
2023/03/20 05:40:17;;;;;;;25.05;9.43;;;;;;;5.67;100.00;101848.22;4926120;28;20110;-93
2023/03/20 05:42:53;;;;;;;25.23;10.30;;;;;;;5.76;100.00;101844.91;4940612;28;21376;-93
2023/03/20 05:45:31;;;;;;;;;;;;;;;;;;;;;
2023/03/20 05:47:56;;;;;;;24.27;9.13;;;;;;;5.72;100.00;101851.72;4943645;28;20031;-91
2023/03/20 05:50:22;;;;;;;23.15;9.23;;;;;;;5.80;100.00;101859.53;4927170;28;20077;-93
2023/03/20 05:52:48;;;;;;;21.42;9.15;;;;;;;5.78;100.00;101866.38;4942066;28;20027;-92
2023/03/20 05:55:17;;;;;;;20.33;8.75;;;;;;;5.72;100.00;101858.59;4941770;28;20715;-92
2023/03/20 05:57:45;;;;;;;20.17;8.60;;;;;;;5.81;100.00;101877.53;4943817;28;20054;-92
2023/03/20 06:00:11;;;;;;;24.05;8.65;;;;;;;5.92;100.00;101901.75;4927042;28;20055;-92
2023/03/20 06:02:44;;;;;;;22.58;9.05;;;;;;;5.90;100.00;101893.13;4942644;28;20448;-91
2023/03/20 06:05:12;;;;;;;23.48;8.57;;;;;;;5.82;100.00;101881.84;4942290;28;20432;-92
2023/03/20 06:07:37;;;;;;;21.25;9.25;;;;;;;5.99;100.00;101904.41;4942247;28;20034;-93
2023/03/20 06:10:05;;;;;;;19.88;8.48;;;;;;;5.91;100.00;101892.31;4943086;28;20035;-92
2023/03/20 06:12:33;;;;;;;20.08;8.55;;;;;;;5.95;100.00;101886.34;4942944;28;20865;-92
2023/03/20 06:14:59;;;;;;;23.45;8.07;;;;;;;6.06;100.00;101901.06;4959451;28;20038;-92
2023/03/20 06:17:25;;;;;;;22.42;8.40;;;;;;;6.09;100.00;101896.78;4958138;28;20032;-92
2023/03/20 06:19:56;;;;;;;20.60;8.30;;;;;;;6.02;100.00;101887.25;4941673;28;20673;-93
2023/03/20 06:22:24;;;;;;;21.35;8.07;;;;;;;6.15;100.00;101901.13;4925335;29;20031;-94
2023/03/20 06:25:19;;;;;;;21.00;8.27;;;;;;;6.16;100.00;101901.16;4944154;28;20059;-93
2023/03/20 06:27:46;;;;;;;21.23;8.32;;;;;;;6.30;100.00;101907.31;4935263;28;20697;-93
2023/03/20 06:30:15;;;;;;;20.98;8.35;;;;;;;6.31;100.00;101898.75;4941773;28;20500;-93
2023/03/20 06:32:47;;;;;;;19.67;8.15;;;;;;;6.34;100.00;101893.66;4942864;28;20408;-94
2023/03/20 06:35:16;;;;;;;19.95;8.13;;;;;;;6.57;100.00;101919.63;4940448;28;20027;-92
2023/03/20 06:37:42;;;;;;;20.85;8.10;;;;;;;6.50;100.00;101897.22;4958623;28;20019;-92
2023/03/20 06:40:09;;;;;;;19.95;7.68;;;;;;;6.62;100.00;101909.34;4957278;28;20038;-93
2023/03/20 06:42:40;;;;;;;19.92;8.30;;;;;;;6.68;100.00;101912.03;4944710;28;20389;-92
2023/03/20 06:45:15;;;;;;;19.50;7.95;;;;;;;6.83;100.00;101931.88;4941447;28;20082;-93
2023/03/20 06:47:41;;;;;;;19.70;8.40;;;;;;;6.75;100.00;101912.06;4956457;28;20631;-91
2023/03/20 06:50:10;;;;;;;19.98;7.68;;;;;;;6.87;100.00;101923.34;4957144;28;20027;-93
2023/03/20 06:52:41;;;;;;;21.08;7.60;;;;;;;6.90;100.00;101913.91;4957380;28;20046;-92
2023/03/20 06:55:07;;;;;;;22.92;8.35;;;;;;;7.04;100.00;101922.63;4956586;28;20605;-94
2023/03/20 06:57:41;;;;;;;21.60;7.85;;;;;;;7.13;100.00;101929.56;4941765;29;20234;-93
2023/03/20 07:00:10;;;;;;;25.77;7.80;;;;;;;7.24;100.00;101942.53;4943012;29;20059;-93
2023/03/20 07:02:38;;;;;;;20.05;7.65;;;;;;;7.14;100.00;101918.41;4942189;29;20067;-94
2023/03/20 07:05:06;;;;;;;18.77;7.97;;;;;;;7.32;100.00;101944.31;4941229;29;20034;-93
2023/03/20 07:07:32;;;;;;;17.75;7.47;;;;;;;7.42;100.00;101956.47;4956706;28;20126;-94
2023/03/20 07:10:00;;;;;;;18.73;7.63;;;;;;;7.30;100.00;101927.97;4943162;29;20141;-93
2023/03/20 07:12:27;;;;;;;20.02;7.35;;;;;;;7.36;100.00;101935.78;4942680;29;20028;-93
2023/03/20 07:14:56;;;;;;;21.08;9.30;;;;;;;7.47;100.00;101954.75;4941470;29;20153;-94
2023/03/20 07:17:22;;;;;;;21.02;7.95;;;;;;;7.51;100.00;101961.66;4956549;28;20531;-93
2023/03/20 07:19:48;;;;;;;18.98;7.65;;;;;;;7.44;100.00;101944.41;4958299;28;20039;-93
2023/03/20 07:22:23;;;;;;;20.33;7.80;;;;;;;7.43;100.00;101942.72;4957233;28;20636;-93
2023/03/20 07:24:49;;;;;;;17.73;7.50;;;;;;;7.41;100.00;101938.38;4956748;28;20030;-93
2023/03/20 07:27:19;;;;;;;19.50;7.65;;;;;;;7.40;100.00;101953.00;4956555;28;20034;-93
2023/03/20 07:29:47;;;;;;;18.70;7.45;;;;;;;7.49;100.00;101960.81;4940958;29;20035;-92
2023/03/20 07:32:15;;;;;;;18.27;7.78;;;;;;;7.35;100.00;101935.75;4939675;29;20031;-93
2023/03/20 07:34:41;;;;;;;18.30;7.50;;;;;;;7.47;100.00;101959.91;4940470;29;20050;-94
2023/03/20 07:37:07;;;;;;;19.08;7.55;;;;;;;7.51;100.00;101953.06;4939914;28;20416;-93
2023/03/20 07:39:32;;;;;;;22.52;7.55;;;;;;;7.71;99.22;101973.84;4940272;28;20042;-91
2023/03/20 07:41:58;;;;;;;20.77;8.02;;;;;;;7.76;99.20;101964.41;4939196;28;20046;-90
2023/03/20 07:44:23;;;;;;;21.75;7.63;;;;;;;7.91;100.00;101962.75;4955980;28;20054;-92
2023/03/20 07:46:49;;;;;;;18.40;7.53;;;;;;;8.14;98.94;101969.75;4941527;29;20386;-92
2023/03/20 07:49:18;;;;;;;19.30;8.30;;;;;;;8.19;96.43;101943.09;4941078;29;20038;-93
2023/03/20 07:51:44;;;;;;;21.02;7.85;;;;;;;8.38;96.59;101972.47;4941169;29;20161;-92
2023/03/20 07:54:10;;;;;;;19.38;7.18;;;;;;;8.39;95.58;101963.88;4940313;29;20514;-92
2023/03/20 07:56:35;;;;;;;20.10;7.85;;;;;;;8.31;94.51;101932.00;4953569;28;20334;-91
2023/03/20 07:59:03;;;;;;;19.38;7.60;;;;;;;8.51;94.10;101966.50;4941180;29;20278;-93
2023/03/20 08:01:31;;;;;;;18.08;7.13;;;;;;;8.54;94.41;101966.47;4939616;28;20037;-92
2023/03/20 08:03:57;;;;;;;17.58;7.65;;;;;;;8.52;95.63;101950.13;4955862;28;20036;-92
2023/03/20 08:06:22;;;;;;;20.20;7.32;;;;;;;8.55;93.90;101955.28;4940663;29;20031;-91
2023/03/20 08:08:51;;;;;;;16.70;7.00;;;;;;;8.61;94.04;101968.22;4944641;28;20405;-91
2023/03/20 08:11:20;;;;;;;17.92;7.45;;;;;;;8.55;93.98;101969.94;4943741;28;20050;-93
2023/03/20 08:13:53;;;;;;;17.27;7.38;;;;;;;8.35;93.17;101938.88;4954603;28;20035;-92
2023/03/20 08:16:18;;;;;;;17.92;6.97;;;;;;;8.35;94.17;101949.22;4943777;29;20039;-91
2023/03/20 08:18:44;;;;;;;19.73;7.38;;;;;;;8.32;93.07;101950.03;4952147;29;20048;-92
2023/03/20 08:21:12;;;;;;;21.55;7.30;;;;;;;8.30;93.89;101950.88;4961618;28;20110;-92
2023/03/20 08:23:40;;;;;;;17.90;7.18;;;;;;;8.29;94.36;101954.31;4945020;28;20041;-92
2023/03/20 08:26:05;;;;;;;18.10;7.20;;;;;;;8.20;95.30;101941.38;4947218;29;20079;-92
2023/03/20 08:28:34;;;;;;;16.95;6.47;;;;;;;8.22;93.73;101939.66;4945808;29;20034;-93
2023/03/20 08:30:59;;;;;;;21.63;7.05;;;;;;;8.35;93.28;101962.13;4941604;29;20503;-92
2023/03/20 08:33:25;;;;;;;15.25;6.82;;;;;;;8.35;93.85;101964.72;4940222;28;20059;-92
2023/03/20 08:35:55;;;;;;;17.15;6.70;;;;;;;8.22;93.39;101942.25;4940414;28;20543;-92
2023/03/20 08:38:27;;;;;;;15.80;5.75;;;;;;;8.25;92.16;101939.69;4954296;28;20062;-94
2023/03/20 08:40:58;;;;;;;13.05;5.95;;;;;;;8.27;92.20;101949.16;4954188;28;20023;-94
2023/03/20 08:43:33;;;;;;;18.98;6.43;;;;;;;8.30;91.69;101961.22;4953939;28;20134;-94
2023/03/20 08:45:59;;;;;;;18.48;6.68;;;;;;;8.36;93.05;101960.41;4955620;28;20031;-92
2023/03/20 08:51:15;;;;;;;20.83;7.38;;;;;;;8.56;92.24;101964.78;4940231;29;20094;-95
2023/03/20 08:53:44;;;;;;;16.83;6.57;;;;;;;8.70;90.99;101965.66;4937747;28;20656;-92
2023/03/20 08:56:12;;;;;;;16.27;6.25;;;;;;;8.71;89.41;101953.63;4943257;28;20034;-94
2023/03/20 08:58:44;;;;;;;17.92;6.30;;;;;;;8.78;90.45;101939.84;4954452;28;20042;-93
2023/03/20 09:01:20;;;;;;;18.70;6.85;;;;;;;8.85;89.47;101933.81;4953966;28;20074;-93
2023/03/20 09:04:15;;;;;;;16.63;6.35;;;;;;;9.02;88.45;101950.19;4953495;28;20046;-94
2023/03/20 09:06:44;;;;;;;15.30;5.75;;;;;;;9.00;88.57;101939.00;4952183;28;20043;-93
2023/03/20 09:09:28;;;;;;;15.77;5.93;;;;;;;9.04;88.85;101940.72;4938552;29;20031;-94
2023/03/20 09:12:31;;;;;;;;;;;;;;;;;;;;;
2023/03/20 09:15:07;;;;;;;16.88;5.75;;;;;;;8.98;88.83;101935.53;4940753;29;20030;-93
2023/03/20 09:17:32;;;;;;;15.98;6.00;;;;;;;9.07;87.77;101965.72;4937418;29;20125;-93
2023/03/20 09:20:09;;;;;;;13.02;5.85;;;;;;;8.89;87.46;101937.25;4939575;29;20139;-93
2023/03/20 09:22:54;;;;;;;15.35;5.80;;;;;;;8.97;88.13;101958.81;4940567;29;20035;-93
2023/03/20 09:25:25;;;;;;;15.73;6.00;;;;;;;8.86;88.39;101957.94;4942940;28;20027;-94
2023/03/20 09:27:54;;;;;;;18.10;5.57;;;;;;;8.88;87.89;101972.59;4954078;28;20038;-95
2023/03/20 09:30:34;;;;;;;14.18;5.95;;;;;;;8.75;89.04;101936.38;4937852;28;20204;-94
2023/03/20 09:33:10;;;;;;;17.02;6.03;;;;;;;8.80;89.47;101943.28;4937401;29;20111;-93
2023/03/20 09:35:40;;;;;;;15.90;6.28;;;;;;;8.98;89.64;101960.53;4938548;28;20695;-94
2023/03/20 09:38:06;;;;;;;16.38;6.32;;;;;;;9.08;89.27;101957.09;4939237;29;20035;-93
2023/03/20 09:40:55;;;;;;;18.77;6.63;;;;;;;9.16;90.31;101944.16;4939619;29;20113;-94
2023/03/20 09:43:29;;;;;;;17.33;6.90;;;;;;;9.40;90.82;101983.84;4936223;29;20163;-93
2023/03/20 09:46:20;;;;;;;19.58;6.97;;;;;;;9.30;91.26;101955.34;4953267;28;20505;-94
2023/03/20 09:49:32;;;;;;;16.77;6.43;;;;;;;9.54;90.77;101983.81;4928067;28;20150;-93
2023/03/20 09:52:02;;;;;;;15.75;6.43;;;;;;;9.47;89.68;101977.78;4938681;29;20067;-93
2023/03/20 09:54:42;;;;;;;14.48;6.10;;;;;;;9.60;90.90;101980.34;4942670;29;20284;-93
2023/03/20 09:57:28;;;;;;;16.52;6.43;;;;;;;9.71;90.04;101963.94;4954206;28;20150;-94
2023/03/20 10:00:11;;;;;;;13.32;6.05;;;;;;;10.00;90.21;101983.72;4940219;28;20070;-93
2023/03/20 10:02:48;;;;;;;13.77;5.60;;;;;;;9.93;88.57;101949.19;4954647;28;20114;-94
2023/03/20 10:05:50;;;;;;;16.73;6.25;;;;;;;9.97;88.52;101960.41;4953666;28;20542;-95
2023/03/20 10:08:31;;;;;;;12.98;6.03;;;;;;;10.00;87.49;101978.53;4954099;28;20234;-93
2023/03/20 10:11:14;;;;;;;12.02;5.45;;;;;;;9.87;88.44;101972.53;4941065;29;20066;-93
2023/03/20 10:14:00;;;;;;;15.63;5.40;;;;;;;9.67;89.62;101958.78;4940410;29;20407;-95
2023/03/20 10:17:00;;;;;;;12.57;5.47;;;;;;;9.77;89.86;101971.69;4937719;29;20023;-94
2023/03/20 10:19:39;;;;;;;15.15;5.68;;;;;;;9.79;90.83;101964.78;4953306;28;20038;-94
2023/03/20 10:22:24;;;;;;;12.65;5.63;;;;;;;9.80;89.85;101971.69;4953945;28;20047;-94
2023/03/20 10:25:18;;;;;;;15.52;5.85;;;;;;;9.83;89.29;101944.91;4952819;28;20043;-94
2023/03/20 10:28:07;;;;;;;10.15;4.97;;;;;;;10.03;88.58;101963.00;4951931;28;20527;-94
2023/03/20 10:31:13;;;;;;;;;;;;;;;;;;;;;
2023/03/20 10:34:11;;;;;;;10.82;5.03;;;;;;;10.31;89.61;101956.84;4939140;28;20058;-95
2023/03/20 10:36:42;;;;;;;12.73;4.88;;;;;;;10.21;89.16;101929.25;4942423;29;20046;-94
2023/03/20 10:39:20;;;;;;;13.63;5.18;;;;;;;10.42;89.80;101955.06;4957503;28;20495;-94
2023/03/20 10:42:16;;;;;;;14.73;5.32;;;;;;;10.29;89.16;101936.13;4942510;29;20038;-93
2023/03/20 10:44:47;;;;;;;11.65;5.28;;;;;;;10.15;87.64;101924.94;4941000;29;20031;-93
2023/03/20 10:47:26;;;;;;;10.80;4.50;;;;;;;10.14;87.71;101937.91;4940892;29;20152;-93
2023/03/20 10:49:59;;;;;;;14.85;4.80;;;;;;;9.95;88.94;101924.16;4940554;28;20122;-91
2023/03/20 10:52:33;;;;;;;10.38;4.53;;;;;;;9.89;91.79;101930.22;4946427;29;20102;-93
2023/03/20 10:55:29;;;;;;;13.65;4.65;;;;;;;9.95;92.62;101954.38;4940736;29;20027;-92
2023/03/20 10:58:20;;;;;;;13.30;4.65;;;;;;;9.83;92.10;101955.25;4956252;28;20110;-92
2023/03/20 11:00:49;;;;;;;15.02;4.88;;;;;;;9.45;91.89;101922.56;4955192;28;20042;-93
2023/03/20 11:03:27;;;;;;;11.77;4.90;;;;;;;9.46;92.39;101934.66;4940699;28;20054;-93
2023/03/20 11:06:21;;;;;;;14.35;5.22;;;;;;;9.58;92.81;101958.78;4942420;29;20035;-93
2023/03/20 11:08:55;;;;;;;14.30;5.45;;;;;;;9.65;93.72;101929.44;4942325;29;20023;-93
2023/03/20 11:11:25;;;;;;;14.60;5.43;;;;;;;9.99;89.51;101937.94;4939458;29;20294;-93
2023/03/20 11:13:51;;;;;;;14.88;5.50;;;;;;;10.09;90.67;101924.13;4957684;28;20027;-93
2023/03/20 11:16:23;;;;;;;13.18;5.55;;;;;;;10.37;91.15;101949.06;4941494;28;20045;-93
2023/03/20 11:19:02;;;;;;;;;;;;;;;;;;;;;
2023/03/20 11:21:43;;;;;;;13.52;6.10;;;;;;;10.48;89.69;101905.78;4942733;29;20031;-92
2023/03/20 11:24:24;;;;;;;15.40;5.00;;;;;;;10.75;89.21;101911.66;4956617;28;20035;-93
2023/03/20 11:27:30;;;;;;;15.30;5.80;;;;;;;10.94;87.42;101911.50;4940095;29;20032;-93
2023/03/20 11:29:57;;;;;;;14.90;5.35;;;;;;;11.07;84.91;101920.03;4919912;29;20447;-92
2023/03/20 11:32:39;;;;;;;12.75;6.05;;;;;;;11.12;84.89;101918.28;4937625;29;20035;-92
2023/03/20 11:35:19;;;;;;;12.43;5.30;;;;;;;11.14;84.16;101910.47;4956408;28;20119;-91
2023/03/20 11:37:47;;;;;;;13.25;4.95;;;;;;;11.03;85.49;101890.69;4956420;28;20074;-92
2023/03/20 11:40:22;;;;;;;13.73;4.97;;;;;;;11.20;83.65;101900.88;4940636;29;20400;-93
2023/03/20 11:43:05;;;;;;;12.25;4.65;;;;;;;11.27;84.06;101901.69;4940290;29;20027;-92
2023/03/20 11:45:36;;;;;;;16.33;5.93;;;;;;;11.26;82.30;101881.81;4937367;28;20043;-91
2023/03/20 11:48:11;;;;;;;11.40;4.63;;;;;;;11.36;82.91;101883.44;4939398;28;20113;-92
2023/03/20 11:50:47;;;;;;;12.77;5.45;;;;;;;11.54;81.51;101892.75;4939171;28;20487;-92
2023/03/20 11:53:25;;;;;;;10.95;4.82;;;;;;;11.50;81.87;101876.38;4953091;28;20073;-92
2023/03/20 11:56:19;;;;;;;15.15;5.28;;;;;;;11.68;81.98;101894.31;4955532;28;20035;-91
2023/03/20 11:59:10;;;;;;;10.10;4.47;;;;;;;11.63;82.53;101880.53;4954993;28;20023;-92
2023/03/20 12:01:43;;;;;;;13.00;5.47;;;;;;;11.77;81.07;101896.88;4955713;28;20066;-93
2023/03/20 12:04:16;;;;;;;13.18;4.70;;;;;;;11.95;80.25;101908.75;4943796;28;20042;-91